createdAt,value
2023-04-12T00:00:33.198Z,25.76
2023-04-12T00:01:33.225Z,25.77
2023-04-12T00:02:33.520Z,25.79
2023-04-12T00:03:33.391Z,25.76
2023-04-12T00:04:33.373Z,25.77
2023-04-12T00:05:33.430Z,25.77
2023-04-12T00:06:33.422Z,25.76
2023-04-12T00:07:33.427Z,25.77
2023-04-12T00:08:33.532Z,25.77
2023-04-12T00:09:33.483Z,25.77
2023-04-12T00:10:33.528Z,25.74
2023-04-12T00:11:33.547Z,25.73
2023-04-12T00:12:33.592Z,25.79
2023-04-12T00:13:33.643Z,25.77
2023-04-12T00:14:33.657Z,25.76
2023-04-12T00:15:33.663Z,25.74
2023-04-12T00:16:33.700Z,25.77
2023-04-12T00:17:33.777Z,25.76
2023-04-12T00:18:33.837Z,25.74
2023-04-12T00:19:33.866Z,25.76
2023-04-12T00:20:33.858Z,25.76
2023-04-12T00:21:33.934Z,25.77
2023-04-12T00:22:33.933Z,25.74
2023-04-12T00:23:34.033Z,25.74
2023-04-12T00:24:34.002Z,25.73
2023-04-12T00:25:34.097Z,25.74
2023-04-12T00:26:34.118Z,25.76
2023-04-12T00:27:34.208Z,25.74
2023-04-12T00:28:34.204Z,25.73
2023-04-12T00:29:34.269Z,25.76
2023-04-12T00:30:34.287Z,25.74
2023-04-12T00:31:34.362Z,25.74
2023-04-12T00:32:34.492Z,25.73
2023-04-12T00:33:34.372Z,25.76
2023-04-12T00:34:34.467Z,25.73
2023-04-12T00:35:34.547Z,25.74
2023-04-12T00:36:34.576Z,25.73
2023-04-12T00:37:34.596Z,25.73
2023-04-12T00:38:34.652Z,25.74
2023-04-12T00:39:34.665Z,25.73
2023-04-12T00:40:34.705Z,25.74
2023-04-12T00:41:34.783Z,25.73
2023-04-12T00:42:34.820Z,25.72
2023-04-12T00:43:34.860Z,25.72
2023-04-12T00:44:34.857Z,25.76
2023-04-12T00:45:34.952Z,25.73
2023-04-12T00:46:35.074Z,25.72
2023-04-12T00:47:35.071Z,25.73
2023-04-12T00:48:35.069Z,25.73
2023-04-12T00:49:35.136Z,25.72
2023-04-12T00:50:35.190Z,25.72
2023-04-12T00:51:35.208Z,25.69
2023-04-12T00:52:35.315Z,25.70
2023-04-12T00:53:35.365Z,25.72
2023-04-12T00:54:35.340Z,25.73
2023-04-12T00:55:35.391Z,25.73
2023-04-12T00:56:35.446Z,25.72
2023-04-12T00:57:35.451Z,25.72
2023-04-12T00:58:35.454Z,25.72
2023-04-12T00:59:35.489Z,25.70
2023-04-12T01:00:35.527Z,25.73
2023-04-12T01:01:35.671Z,25.72
2023-04-12T01:02:35.717Z,25.72
2023-04-12T01:03:35.690Z,25.72
2023-04-12T01:04:35.687Z,25.70
2023-04-12T01:05:35.721Z,25.70
2023-04-12T01:06:35.746Z,25.69
2023-04-12T01:07:35.798Z,25.72
2023-04-12T01:08:35.822Z,25.70
2023-04-12T01:09:35.881Z,25.73
2023-04-12T01:10:35.935Z,25.72
2023-04-12T01:11:35.965Z,25.70
2023-04-12T01:12:35.964Z,25.72
2023-04-12T01:13:36.083Z,25.70
2023-04-12T01:14:36.125Z,25.70
2023-04-12T01:15:36.092Z,25.72
2023-04-12T01:16:36.205Z,25.69
2023-04-12T01:17:36.230Z,25.70
2023-04-12T01:18:36.237Z,25.69
2023-04-12T01:19:36.258Z,25.69
2023-04-12T01:20:36.298Z,25.69
2023-04-12T01:21:36.383Z,25.69
2023-04-12T01:22:36.425Z,25.69
2023-04-12T01:23:36.453Z,25.72
2023-04-12T01:24:36.506Z,25.67
2023-04-12T01:25:36.541Z,25.70
2023-04-12T01:26:36.615Z,25.70
2023-04-12T01:27:36.635Z,25.69
2023-04-12T01:28:36.695Z,25.69
2023-04-12T01:29:36.719Z,25.67
2023-04-12T01:30:36.740Z,25.67
2023-04-12T01:31:36.848Z,25.72
2023-04-12T01:32:36.874Z,25.70
2023-04-12T01:33:36.887Z,25.70
2023-04-12T01:34:36.987Z,25.70
2023-04-12T01:35:37.000Z,25.69
2023-04-12T01:36:37.000Z,25.69
2023-04-12T01:37:37.030Z,25.69
2023-04-12T01:38:37.097Z,25.67
2023-04-12T01:39:37.122Z,25.69
2023-04-12T01:40:37.168Z,25.67
2023-04-12T01:41:37.235Z,25.67
2023-04-12T01:42:37.878Z,25.66
2023-04-12T01:43:37.301Z,25.64
2023-04-12T01:44:37.332Z,25.67
2023-04-12T01:45:37.403Z,25.69
2023-04-12T01:46:37.462Z,25.67
2023-04-12T01:47:37.535Z,25.66
2023-04-12T01:48:37.529Z,25.67
2023-04-12T01:49:37.530Z,25.69
2023-04-12T01:50:37.605Z,25.66
2023-04-12T01:51:37.637Z,25.66
2023-04-12T01:52:37.670Z,25.69
2023-04-12T01:53:37.681Z,25.63
2023-04-12T01:54:37.713Z,25.64
2023-04-12T01:55:37.829Z,25.64
2023-04-12T01:56:40.406Z,25.66
2023-04-12T01:57:37.791Z,25.67
2023-04-12T01:58:37.782Z,25.64
2023-04-12T01:59:37.795Z,25.66
2023-04-12T02:00:37.779Z,25.64
2023-04-12T02:01:37.886Z,25.66
2023-04-12T02:02:37.916Z,25.64
2023-04-12T02:03:37.936Z,25.64
2023-04-12T02:04:37.782Z,25.66
2023-04-12T02:05:37.745Z,25.64
2023-04-12T02:06:37.735Z,25.67
2023-04-12T02:07:37.760Z,25.64
2023-04-12T02:08:37.727Z,25.64
2023-04-12T02:09:37.728Z,25.66
2023-04-12T02:10:37.741Z,25.67
2023-04-12T02:11:37.724Z,25.64
2023-04-12T02:12:37.709Z,25.64
2023-04-12T02:13:37.714Z,25.64
2023-04-12T02:14:37.701Z,25.66
2023-04-12T02:15:37.711Z,25.64
2023-04-12T02:16:37.922Z,25.64
2023-04-12T02:17:37.773Z,25.63
2023-04-12T02:18:37.662Z,25.64
2023-04-12T02:19:37.653Z,25.64
2023-04-12T02:20:37.688Z,25.66
2023-04-12T02:21:37.653Z,25.63
2023-04-12T02:22:37.651Z,25.64
2023-04-12T02:23:37.656Z,25.66
2023-04-12T02:24:37.622Z,25.64
2023-04-12T02:25:37.637Z,25.63
2023-04-12T02:26:37.623Z,25.64
2023-04-12T02:27:37.615Z,25.64
2023-04-12T02:28:37.617Z,25.64
2023-04-12T02:29:37.599Z,25.64
2023-04-12T02:30:37.672Z,25.64
2023-04-12T02:31:37.584Z,25.63
2023-04-12T02:32:37.642Z,25.63
2023-04-12T02:33:37.540Z,25.62
2023-04-12T02:34:37.520Z,25.60
2023-04-12T02:35:37.572Z,25.62
2023-04-12T02:36:37.559Z,25.64
2023-04-12T02:37:37.547Z,25.63
2023-04-12T02:38:37.517Z,25.66
2023-04-12T02:39:37.521Z,25.63
2023-04-12T02:40:37.493Z,25.63
2023-04-12T02:41:37.538Z,25.63
2023-04-12T02:42:37.511Z,25.64
2023-04-12T02:43:37.497Z,25.62
2023-04-12T02:44:37.493Z,25.63
2023-04-12T02:45:37.501Z,25.62
2023-04-12T02:46:37.715Z,25.63
2023-04-12T02:47:37.511Z,25.62
2023-04-12T02:48:37.514Z,25.63
2023-04-12T02:49:37.559Z,25.63
2023-04-12T02:50:37.639Z,25.62
2023-04-12T02:51:37.731Z,25.62
2023-04-12T02:52:37.677Z,25.60
2023-04-12T02:53:37.754Z,25.60
2023-04-12T02:54:37.803Z,25.62
2023-04-12T02:55:37.833Z,25.62
2023-04-12T02:56:37.869Z,25.63
2023-04-12T02:57:37.918Z,25.57
2023-04-12T02:58:37.962Z,25.63
2023-04-12T02:59:37.960Z,25.62
2023-04-12T03:00:38.071Z,25.60
2023-04-12T03:01:38.155Z,25.60
2023-04-12T03:02:38.342Z,25.60
2023-04-12T03:03:38.185Z,25.59
2023-04-12T03:04:38.239Z,25.59
2023-04-12T03:05:38.280Z,25.60
2023-04-12T03:06:38.305Z,25.60
2023-04-12T03:07:38.347Z,25.59
2023-04-12T03:08:38.363Z,25.60
2023-04-12T03:09:38.469Z,25.59
2023-04-12T03:10:38.538Z,25.60
2023-04-12T03:11:38.548Z,25.57
2023-04-12T03:12:38.580Z,25.57
2023-04-12T03:13:38.613Z,25.57
2023-04-12T03:14:38.648Z,25.59
2023-04-12T03:15:38.739Z,25.60
2023-04-12T03:16:38.805Z,25.57
2023-04-12T03:17:38.806Z,25.62
2023-04-12T03:18:38.850Z,25.57
2023-04-12T03:19:38.888Z,25.57
2023-04-12T03:20:38.931Z,25.59
2023-04-12T03:21:38.957Z,25.59
2023-04-12T03:22:38.940Z,25.56
2023-04-12T03:23:39.012Z,25.59
2023-04-12T03:24:39.029Z,25.57
2023-04-12T03:25:39.105Z,25.59
2023-04-12T03:26:39.143Z,25.56
2023-04-12T03:27:39.143Z,25.59
2023-04-12T03:28:39.216Z,25.56
2023-04-12T03:29:39.277Z,25.57
2023-04-12T03:30:39.389Z,25.57
2023-04-12T03:31:39.361Z,25.59
2023-04-12T03:32:39.427Z,25.56
2023-04-12T03:33:39.465Z,25.57
2023-04-12T03:34:39.468Z,25.54
2023-04-12T03:35:39.609Z,25.57
2023-04-12T03:36:39.937Z,25.59
2023-04-12T03:37:39.619Z,25.60
2023-04-12T03:38:39.707Z,25.56
2023-04-12T03:39:39.698Z,25.57
2023-04-12T03:40:39.744Z,25.56
2023-04-12T03:41:39.809Z,25.56
2023-04-12T03:42:39.816Z,25.54
2023-04-12T03:43:39.887Z,25.54
2023-04-12T03:44:39.944Z,25.57
2023-04-12T03:45:40.075Z,25.57
2023-04-12T03:46:40.093Z,25.56
2023-04-12T03:47:40.121Z,25.53
2023-04-12T03:48:40.189Z,25.57
2023-04-12T03:49:40.212Z,25.53
2023-04-12T03:50:40.284Z,25.54
2023-04-12T03:51:40.335Z,25.54
2023-04-12T03:52:40.441Z,25.54
2023-04-12T03:53:40.410Z,25.54
2023-04-12T03:54:40.435Z,25.53
2023-04-12T03:55:40.543Z,25.56
2023-04-12T03:56:40.638Z,25.52
2023-04-12T03:57:40.637Z,25.56
2023-04-12T03:58:40.645Z,25.54
2023-04-12T03:59:40.717Z,25.53
2023-04-12T04:00:40.764Z,25.54
2023-04-12T04:01:40.840Z,25.57
2023-04-12T04:02:40.975Z,25.53
2023-04-12T04:03:41.018Z,25.53
2023-04-12T04:04:41.014Z,25.53
2023-04-12T04:05:41.004Z,25.56
2023-04-12T04:06:41.047Z,25.54
2023-04-12T04:07:41.126Z,25.56
2023-04-12T04:08:41.123Z,25.52
2023-04-12T04:09:41.182Z,25.52
2023-04-12T04:10:41.239Z,25.54
2023-04-12T04:11:41.246Z,25.57
2023-04-12T04:12:41.352Z,25.57
2023-04-12T04:13:41.466Z,25.53
2023-04-12T04:14:41.479Z,25.53
2023-04-12T04:15:41.483Z,25.53
2023-04-12T04:16:41.665Z,25.54
2023-04-12T04:17:41.677Z,25.53
2023-04-12T04:18:41.636Z,25.54
2023-04-12T04:19:41.769Z,25.54
2023-04-12T04:20:41.748Z,25.53
2023-04-12T04:21:41.839Z,25.54
2023-04-12T04:22:41.903Z,25.54
2023-04-12T04:23:41.947Z,25.50
2023-04-12T04:24:42.050Z,25.52
2023-04-12T04:25:42.073Z,25.53
2023-04-12T04:26:42.071Z,25.52
2023-04-12T04:27:42.180Z,25.52
2023-04-12T04:28:42.193Z,25.50
2023-04-12T04:29:42.228Z,25.50
2023-04-12T04:30:42.351Z,25.53
2023-04-12T04:31:42.377Z,25.52
2023-04-12T04:32:42.383Z,25.50
2023-04-12T04:33:42.449Z,25.52
2023-04-12T04:34:42.440Z,25.50
2023-04-12T04:35:42.522Z,25.52
2023-04-12T04:36:42.554Z,25.50
2023-04-12T04:37:42.562Z,25.49
2023-04-12T04:38:42.599Z,25.49
2023-04-12T04:39:42.667Z,25.49
2023-04-12T04:40:42.762Z,25.49
2023-04-12T04:41:42.766Z,25.49
2023-04-12T04:42:42.791Z,25.49
2023-04-12T04:43:42.875Z,25.47
2023-04-12T04:44:42.881Z,25.47
2023-04-12T04:45:42.969Z,25.49
2023-04-12T04:46:42.976Z,25.49
2023-04-12T04:47:43.183Z,25.44
2023-04-12T04:48:43.153Z,25.47
2023-04-12T04:49:43.211Z,25.46
2023-04-12T04:50:43.260Z,25.46
2023-04-12T04:51:43.326Z,25.46
2023-04-12T04:52:43.369Z,25.44
2023-04-12T04:53:43.417Z,25.46
2023-04-12T04:54:43.421Z,25.46
2023-04-12T04:55:43.496Z,25.47
2023-04-12T04:56:43.495Z,25.46
2023-04-12T04:57:43.544Z,25.46
2023-04-12T04:58:43.612Z,25.46
2023-04-12T04:59:43.638Z,25.47
2023-04-12T05:00:43.673Z,25.46
2023-04-12T05:01:43.827Z,25.46
2023-04-12T05:02:43.918Z,25.47
2023-04-12T05:03:44.127Z,25.46
2023-04-12T05:04:43.999Z,25.47
2023-04-12T05:05:43.994Z,25.47
2023-04-12T05:06:44.009Z,25.46
2023-04-12T05:07:44.116Z,25.46
2023-04-12T05:08:44.164Z,25.47
2023-04-12T05:09:44.204Z,25.46
2023-04-12T05:10:44.245Z,25.47
2023-04-12T05:11:44.249Z,25.47
2023-04-12T05:12:44.371Z,25.46
2023-04-12T05:13:44.393Z,25.49
2023-04-12T05:14:47.979Z,25.47
2023-04-12T05:15:45.409Z,25.49
2023-04-12T05:16:44.420Z,25.46
2023-04-12T05:17:44.453Z,25.49
2023-04-12T05:18:44.369Z,25.49
2023-04-12T05:19:44.382Z,25.49
2023-04-12T05:20:44.412Z,25.47
2023-04-12T05:21:44.388Z,25.47
2023-04-12T05:22:44.515Z,25.44
2023-04-12T05:23:44.337Z,25.47
2023-04-12T05:24:44.411Z,25.52
2023-04-12T05:25:44.520Z,25.49
2023-04-12T05:26:44.486Z,25.47
2023-04-12T05:27:44.530Z,25.47
2023-04-12T05:28:44.673Z,25.47
2023-04-12T05:29:44.663Z,25.49
2023-04-12T05:30:44.795Z,25.47
2023-04-12T05:31:44.760Z,25.44
2023-04-12T05:32:44.996Z,25.46
2023-04-12T05:33:44.998Z,25.46
2023-04-12T05:34:44.922Z,25.50
2023-04-12T05:35:44.958Z,25.52
2023-04-12T05:36:45.055Z,25.54
2023-04-12T05:37:45.073Z,25.53
2023-04-12T05:38:45.120Z,25.53
2023-04-12T05:39:45.192Z,25.53
2023-04-12T05:40:45.180Z,25.53
2023-04-12T05:41:45.237Z,25.50
2023-04-12T05:42:45.352Z,25.50
2023-04-12T05:43:45.421Z,25.49
2023-04-12T05:44:46.544Z,25.49
2023-04-12T05:45:45.490Z,25.47
2023-04-12T05:46:45.735Z,25.49
2023-04-12T05:47:45.701Z,25.53
2023-04-12T05:48:45.709Z,25.56
2023-04-12T05:49:45.748Z,25.59
2023-04-12T05:50:45.820Z,25.60
2023-04-12T05:51:45.965Z,25.64
2023-04-12T05:52:45.960Z,25.64
2023-04-12T05:53:45.980Z,25.67
2023-04-12T05:54:46.093Z,25.69
2023-04-12T05:55:46.063Z,25.70
2023-04-12T05:56:46.099Z,25.72
2023-04-12T05:57:46.182Z,25.74
2023-04-12T05:58:46.198Z,25.76
2023-04-12T05:59:46.500Z,25.77
2023-04-12T06:00:46.305Z,25.77
2023-04-12T06:01:46.348Z,25.81
2023-04-12T06:02:46.515Z,25.84
2023-04-12T06:03:46.539Z,25.84
2023-04-12T06:04:50.579Z,25.86
2023-04-12T06:05:46.453Z,25.88
2023-04-12T06:06:46.443Z,25.90
2023-04-12T06:07:46.488Z,25.91
2023-04-12T06:08:46.314Z,25.91
2023-04-12T06:09:46.288Z,25.95
2023-04-12T06:10:46.368Z,25.98
2023-04-12T06:11:46.231Z,25.97
2023-04-12T06:12:46.590Z,26.00
2023-04-12T06:13:46.326Z,25.98
2023-04-12T06:14:47.024Z,26.03
2023-04-12T06:15:46.322Z,26.04
2023-04-12T06:16:46.364Z,26.05
2023-04-12T06:17:46.361Z,26.07
2023-04-12T06:18:46.313Z,26.09
2023-04-12T06:19:47.042Z,26.05
2023-04-12T06:20:46.464Z,26.09
2023-04-12T06:21:46.449Z,26.09
2023-04-12T06:22:46.452Z,26.11
2023-04-12T06:24:02.086Z,26.16
2023-04-12T06:25:05.294Z,26.09
2023-04-12T06:26:05.312Z,26.11
2023-04-12T06:27:05.255Z,26.14
2023-04-12T06:28:05.247Z,26.16
2023-04-12T06:29:05.472Z,26.18
2023-04-12T06:30:05.241Z,26.18
2023-04-12T06:31:05.283Z,26.21
2023-04-12T06:32:05.239Z,26.26
2023-04-12T06:33:05.241Z,26.24
2023-04-12T06:34:05.264Z,26.26
2023-04-12T06:35:05.264Z,26.27
2023-04-12T06:36:05.219Z,26.30
2023-04-12T06:37:05.418Z,26.28
2023-04-12T06:38:05.188Z,26.27
2023-04-12T06:39:05.206Z,26.30
2023-04-12T06:40:05.193Z,26.28
2023-04-12T06:41:05.222Z,26.26
2023-04-12T06:42:05.194Z,26.16
2023-04-12T06:43:05.139Z,26.07
2023-04-12T06:44:05.235Z,26.05
2023-04-12T06:45:05.173Z,26.01
2023-04-12T06:46:05.139Z,26.01
2023-04-12T06:47:05.299Z,25.97
2023-04-12T06:48:05.219Z,25.98
2023-04-12T06:49:05.085Z,25.95
2023-04-12T06:50:05.139Z,25.95
2023-04-12T06:51:05.103Z,26.00
2023-04-12T06:52:05.185Z,26.00
2023-04-12T06:53:05.365Z,26.01
2023-04-12T06:54:06.207Z,26.01
2023-04-12T06:55:06.023Z,25.98
2023-04-12T06:56:05.038Z,25.98
2023-04-12T06:57:05.035Z,25.95
2023-04-12T06:58:05.054Z,25.94
2023-04-12T06:59:05.118Z,25.93
2023-04-12T07:00:05.020Z,25.91
2023-04-12T07:01:05.072Z,25.91
2023-04-12T07:02:05.115Z,25.91
2023-04-12T07:03:05.109Z,25.95
2023-04-12T07:04:04.983Z,25.94
2023-04-12T07:05:04.999Z,25.97
2023-04-12T07:06:13.802Z,25.98
2023-04-12T07:07:06.038Z,25.98
2023-04-12T07:08:04.974Z,25.98
2023-04-12T07:09:05.503Z,26.00
2023-04-12T07:10:04.999Z,26.01
2023-04-12T07:11:14.588Z,26.01
2023-04-12T07:12:05.920Z,26.04
2023-04-12T07:13:04.948Z,26.00
2023-04-12T07:14:04.941Z,26.03
2023-04-12T07:15:04.862Z,26.04
2023-04-12T07:16:04.961Z,26.04
2023-04-12T07:17:05.053Z,26.05
2023-04-12T07:18:04.935Z,26.07
2023-04-12T07:19:04.889Z,26.05
2023-04-12T07:20:04.850Z,26.08
2023-04-12T07:21:04.888Z,26.09
2023-04-12T07:22:04.985Z,26.09
2023-04-12T07:23:04.965Z,26.14
2023-04-12T07:24:04.880Z,26.16
2023-04-12T07:25:04.900Z,26.17
2023-04-12T07:26:04.823Z,26.20
2023-04-12T07:27:04.919Z,26.20
2023-04-12T07:28:05.968Z,26.23
2023-04-12T07:29:04.914Z,26.21
2023-04-12T07:30:05.061Z,26.24
2023-04-12T07:31:05.064Z,26.24
2023-04-12T07:32:04.960Z,26.24
2023-04-12T07:33:16.316Z,26.26
2023-04-12T07:34:06.051Z,26.28
2023-04-12T07:35:04.959Z,26.30
2023-04-12T07:36:05.114Z,26.31
2023-04-12T07:37:04.995Z,26.28
2023-04-12T07:38:04.977Z,26.30
2023-04-12T07:39:04.984Z,26.30
2023-04-12T07:40:04.976Z,26.31
2023-04-12T07:41:04.937Z,26.31
2023-04-12T07:42:05.012Z,26.32
2023-04-12T07:43:04.947Z,26.38
2023-04-12T07:44:04.924Z,26.37
2023-04-12T07:45:05.061Z,26.39
2023-04-12T07:46:04.969Z,26.41
2023-04-12T07:47:04.968Z,26.42
2023-04-12T07:48:04.952Z,26.45
2023-04-12T07:49:04.877Z,26.47
2023-04-12T07:50:04.846Z,26.52
2023-04-12T07:51:04.927Z,26.51
2023-04-12T07:52:04.878Z,26.54
2023-04-12T07:53:04.860Z,26.56
2023-04-12T07:54:04.822Z,26.56
2023-04-12T07:55:04.821Z,26.59
2023-04-12T07:56:04.964Z,26.59
2023-04-12T07:57:04.809Z,26.62
2023-04-12T07:58:04.804Z,26.63
2023-04-12T07:59:05.018Z,26.69
2023-04-12T08:00:04.826Z,26.69
2023-04-12T08:01:04.838Z,26.71
2023-04-12T08:02:04.831Z,26.72
2023-04-12T08:03:05.029Z,26.77
2023-04-12T08:04:04.906Z,26.78
2023-04-12T08:05:04.846Z,26.77
2023-04-12T08:06:04.928Z,26.77
2023-04-12T08:07:04.918Z,26.79
2023-04-12T08:08:04.923Z,26.81
2023-04-12T08:09:04.985Z,26.82
2023-04-12T08:10:04.993Z,26.85
2023-04-12T08:11:05.042Z,26.88
2023-04-12T08:12:05.101Z,26.88
2023-04-12T08:13:05.146Z,26.89
2023-04-12T08:14:05.276Z,26.96
2023-04-12T08:15:05.382Z,26.96
2023-04-12T08:16:05.481Z,26.99
2023-04-12T08:17:05.446Z,26.99
2023-04-12T08:18:05.493Z,27.02
2023-04-12T08:19:05.670Z,27.02
2023-04-12T08:20:06.145Z,27.03
2023-04-12T08:21:05.673Z,27.01
2023-04-12T08:22:05.729Z,27.02
2023-04-12T08:23:06.540Z,26.99
2023-04-12T08:24:05.809Z,26.98
2023-04-12T08:25:06.013Z,26.95
2023-04-12T08:26:06.039Z,26.96
2023-04-12T08:27:05.764Z,26.93
2023-04-12T08:28:05.835Z,26.91
2023-04-12T08:29:05.869Z,26.93
2023-04-12T08:30:05.954Z,26.98
2023-04-12T08:31:05.991Z,26.98
2023-04-12T08:32:06.060Z,26.98
2023-04-12T08:33:06.136Z,26.99
2023-04-12T08:34:06.090Z,26.99
2023-04-12T08:35:06.083Z,27.01
2023-04-12T08:36:06.177Z,26.99
2023-04-12T08:37:06.246Z,26.99
2023-04-12T08:38:06.243Z,26.99
2023-04-12T08:39:06.323Z,26.98
2023-04-12T08:40:06.368Z,26.96
2023-04-12T08:41:06.465Z,26.95
2023-04-12T08:42:06.489Z,26.93
2023-04-12T08:43:06.546Z,26.88
2023-04-12T08:44:06.590Z,26.89
2023-04-12T08:45:06.605Z,26.86
2023-04-12T08:46:06.701Z,26.88
2023-04-12T08:47:06.684Z,26.86
2023-04-12T08:48:06.921Z,26.92
2023-04-12T08:49:06.810Z,26.93
2023-04-12T08:50:06.911Z,26.96
2023-04-12T08:51:06.950Z,26.96
2023-04-12T08:52:07.031Z,26.99
2023-04-12T08:53:07.058Z,26.96
2023-04-12T08:54:07.151Z,26.96
2023-04-12T08:55:07.191Z,26.93
2023-04-12T08:56:07.193Z,26.92
2023-04-12T08:57:07.284Z,26.92
2023-04-12T08:58:07.337Z,26.92
2023-04-12T08:59:07.403Z,26.92
2023-04-12T09:00:07.347Z,26.86
2023-04-12T09:01:07.330Z,26.86
2023-04-12T09:02:07.490Z,26.86
2023-04-12T09:03:07.688Z,26.88
2023-04-12T09:04:07.867Z,26.91
2023-04-12T09:05:07.698Z,26.91
2023-04-12T09:06:07.591Z,26.91
2023-04-12T09:07:07.573Z,26.91
2023-04-12T09:08:07.788Z,26.92
2023-04-12T09:09:08.593Z,26.93
2023-04-12T09:10:07.697Z,26.96
2023-04-12T09:11:07.656Z,26.96
2023-04-12T09:12:07.781Z,27.01
2023-04-12T09:13:07.768Z,27.01
2023-04-12T09:14:07.794Z,27.03
2023-04-12T09:15:07.829Z,27.05
2023-04-12T09:16:08.000Z,27.07
2023-04-12T09:17:08.046Z,27.12
2023-04-12T09:18:08.083Z,27.12
2023-04-12T09:19:08.079Z,27.15
2023-04-12T09:20:08.070Z,27.17
2023-04-12T09:21:08.177Z,27.21
2023-04-12T09:22:08.172Z,27.26
2023-04-12T09:23:08.179Z,27.29
2023-04-12T09:24:08.263Z,27.32
2023-04-12T09:25:08.333Z,27.32
2023-04-12T09:26:08.385Z,27.35
2023-04-12T09:27:08.484Z,27.36
2023-04-12T09:28:08.494Z,27.39
2023-04-12T09:29:08.490Z,27.40
2023-04-12T09:30:08.642Z,27.40
2023-04-12T09:31:08.643Z,27.43
2023-04-12T09:32:08.677Z,27.43
2023-04-12T09:33:08.749Z,27.39
2023-04-12T09:34:08.841Z,27.37
2023-04-12T09:35:08.903Z,27.35
2023-04-12T09:36:08.958Z,27.36
2023-04-12T09:37:09.072Z,27.30
2023-04-12T09:38:09.120Z,27.32
2023-04-12T09:39:09.605Z,27.33
2023-04-12T09:40:10.092Z,27.32
2023-04-12T09:41:09.242Z,27.35
2023-04-12T09:42:21.456Z,27.39
2023-04-12T09:43:10.243Z,27.37
2023-04-12T09:44:09.276Z,27.39
2023-04-12T09:45:09.227Z,27.45
2023-04-12T09:46:09.264Z,27.47
2023-04-12T09:47:09.235Z,27.49
2023-04-12T09:48:09.290Z,27.52
2023-04-12T09:49:09.586Z,27.54
2023-04-12T09:50:09.178Z,27.56
2023-04-12T09:51:09.219Z,27.56
2023-04-12T09:52:09.231Z,27.60
2023-04-12T09:53:09.286Z,27.60
2023-04-12T09:54:09.299Z,27.60
2023-04-12T09:55:09.294Z,27.61
2023-04-12T09:56:09.342Z,27.61
2023-04-12T09:57:09.329Z,27.66
2023-04-12T09:58:09.338Z,27.66
2023-04-12T09:59:09.584Z,27.67
2023-04-12T10:00:09.450Z,27.66
2023-04-12T10:01:09.547Z,27.67
2023-04-12T10:02:09.588Z,27.68
2023-04-12T10:03:09.554Z,27.70
2023-04-12T10:04:09.840Z,27.68
2023-04-12T10:05:09.661Z,27.70
2023-04-12T10:06:09.551Z,27.68
2023-04-12T10:07:09.586Z,27.68
2023-04-12T10:08:09.608Z,27.67
2023-04-12T10:09:09.628Z,27.66
2023-04-12T10:10:09.649Z,27.64
2023-04-12T10:11:09.654Z,27.63
2023-04-12T10:12:09.651Z,27.64
2023-04-12T10:13:09.725Z,27.66
2023-04-12T10:14:09.694Z,27.66
2023-04-12T10:15:09.754Z,27.63
2023-04-12T10:16:09.935Z,27.66
2023-04-12T10:17:09.779Z,27.63
2023-04-12T10:18:09.945Z,27.67
2023-04-12T10:19:09.894Z,27.64
2023-04-12T10:20:10.018Z,27.67
2023-04-12T10:21:09.981Z,27.68
2023-04-12T10:22:09.989Z,27.70
2023-04-12T10:23:10.045Z,27.71
2023-04-12T10:24:10.567Z,27.71
2023-04-12T10:25:10.151Z,27.70
2023-04-12T10:26:10.140Z,27.68
2023-04-12T10:27:11.051Z,27.66
2023-04-12T10:28:10.234Z,27.67
2023-04-12T10:29:10.202Z,27.66
2023-04-12T10:30:10.290Z,27.61
2023-04-12T10:31:10.546Z,27.61
2023-04-12T10:32:10.583Z,27.57
2023-04-12T10:33:10.693Z,27.54
2023-04-12T10:34:10.616Z,27.50
2023-04-12T10:35:10.586Z,27.47
2023-04-12T10:36:10.677Z,27.43
2023-04-12T10:37:10.706Z,27.40
2023-04-12T10:38:10.755Z,27.36
2023-04-12T10:39:10.822Z,27.36
2023-04-12T10:40:10.852Z,27.35
2023-04-12T10:41:10.912Z,27.30
2023-04-12T10:42:10.944Z,27.29
2023-04-12T10:43:10.995Z,27.29
2023-04-12T10:44:11.033Z,27.26
2023-04-12T10:45:11.015Z,27.23
2023-04-12T10:46:11.083Z,27.25
2023-04-12T10:47:11.128Z,27.25
2023-04-12T10:48:11.264Z,27.23
2023-04-12T10:49:11.271Z,27.23
2023-04-12T10:50:11.318Z,27.23
2023-04-12T10:51:11.319Z,27.17
2023-04-12T10:52:11.318Z,27.17
2023-04-12T10:53:11.367Z,27.17
2023-04-12T10:54:11.474Z,27.17
2023-04-12T10:55:11.500Z,27.15
2023-04-12T10:56:11.588Z,27.15
2023-04-12T10:57:11.644Z,27.15
2023-04-12T10:58:11.830Z,27.13
2023-04-12T10:59:12.223Z,27.12
2023-04-12T11:00:11.847Z,27.13
2023-04-12T11:01:11.976Z,27.15
2023-04-12T11:02:12.370Z,27.12
2023-04-12T11:03:12.682Z,27.10
2023-04-12T11:04:12.189Z,27.10
2023-04-12T11:05:12.119Z,27.10
2023-04-12T11:06:26.642Z,27.09
2023-04-12T11:07:13.148Z,27.09
2023-04-12T11:08:12.554Z,27.10
2023-04-12T11:09:12.174Z,27.06
2023-04-12T11:10:12.611Z,27.07
2023-04-12T11:11:12.107Z,27.05
2023-04-12T11:12:12.064Z,27.05
2023-04-12T11:13:12.155Z,27.01
2023-04-12T11:14:12.113Z,26.99
2023-04-12T11:15:12.194Z,26.96
2023-04-12T11:16:12.250Z,26.95
2023-04-12T11:17:12.390Z,26.93
2023-04-12T11:18:12.282Z,26.91
2023-04-12T11:19:12.333Z,26.89
2023-04-12T11:20:12.347Z,26.86
2023-04-12T11:21:12.333Z,26.83
2023-04-12T11:22:12.341Z,26.83
2023-04-12T11:23:12.649Z,26.79
2023-04-12T11:24:12.361Z,26.78
2023-04-12T11:25:12.368Z,26.77
2023-04-12T11:26:12.380Z,26.75
2023-04-12T11:27:12.392Z,26.72
2023-04-12T11:28:27.250Z,26.72
2023-04-12T11:29:13.408Z,26.71
2023-04-12T11:30:12.443Z,26.68
2023-04-12T11:31:12.451Z,26.69
2023-04-12T11:32:12.567Z,26.67
2023-04-12T11:33:12.499Z,26.69
2023-04-12T11:34:14.687Z,26.65
2023-04-12T11:35:12.432Z,26.68
2023-04-12T11:36:12.362Z,26.68
2023-04-12T11:37:12.354Z,26.67
2023-04-12T11:38:12.357Z,26.67
2023-04-12T11:39:12.349Z,26.63
2023-04-12T11:40:12.496Z,26.63
2023-04-12T11:41:12.381Z,26.63
2023-04-12T11:42:12.301Z,26.63
2023-04-12T11:43:12.295Z,26.63
2023-04-12T11:44:12.255Z,26.62
2023-04-12T11:45:17.180Z,26.67
2023-04-12T11:46:13.364Z,26.65
2023-04-12T11:47:12.251Z,26.63
2023-04-12T11:48:12.763Z,26.62
2023-04-12T11:49:12.250Z,26.65
2023-04-12T11:50:12.294Z,26.65
2023-04-12T11:51:12.338Z,26.67
2023-04-12T11:52:12.208Z,26.67
2023-04-12T11:53:12.246Z,26.65
2023-04-12T11:54:12.178Z,26.68
2023-04-12T11:55:12.289Z,26.69
2023-04-12T11:56:12.270Z,26.67
2023-04-12T11:57:12.294Z,26.67
2023-04-12T11:58:12.183Z,26.65
2023-04-12T11:59:12.174Z,26.68
2023-04-12T12:00:12.192Z,26.68
2023-04-12T12:01:12.187Z,26.68
2023-04-12T12:02:22.612Z,26.58
2023-04-12T12:03:13.332Z,26.61
2023-04-12T12:04:12.410Z,26.58
2023-04-12T12:05:12.301Z,26.55
2023-04-12T12:06:12.503Z,26.55
2023-04-12T12:07:12.412Z,26.56
2023-04-12T12:08:12.160Z,26.58
2023-04-12T12:09:12.147Z,26.65
2023-04-12T12:10:13.447Z,26.63
2023-04-12T12:11:13.075Z,26.68
2023-04-12T12:12:12.101Z,26.74
2023-04-12T12:13:12.084Z,26.81
2023-04-12T12:14:12.180Z,26.79
2023-04-12T12:15:12.037Z,26.85
2023-04-12T12:16:12.143Z,26.89
2023-04-12T12:17:12.068Z,26.93
2023-04-12T12:18:12.039Z,26.96
2023-04-12T12:19:12.043Z,26.98
2023-04-12T12:20:12.076Z,27.01
2023-04-12T12:21:12.028Z,27.01
2023-04-12T12:22:12.599Z,27.02
2023-04-12T12:23:12.034Z,27.09
2023-04-12T12:24:12.093Z,27.09
2023-04-12T12:25:12.045Z,27.12
2023-04-12T12:26:18.515Z,27.15
2023-04-12T12:27:13.176Z,27.17
2023-04-12T12:28:12.240Z,27.21
2023-04-12T12:29:12.106Z,27.22
2023-04-12T12:30:12.097Z,27.26
2023-04-12T12:31:12.118Z,27.30
2023-04-12T12:32:12.107Z,27.35
2023-04-12T12:33:12.102Z,27.37
2023-04-12T12:34:12.376Z,27.40
2023-04-12T12:35:12.047Z,27.42
2023-04-12T12:36:12.069Z,27.45
2023-04-12T12:37:12.161Z,27.45
2023-04-12T12:38:12.065Z,27.47
2023-04-12T12:39:12.471Z,27.46
2023-04-12T12:40:12.043Z,27.47
2023-04-12T12:41:12.057Z,27.46
2023-04-12T12:42:12.010Z,27.45
2023-04-12T12:43:12.066Z,27.43
2023-04-12T12:44:12.083Z,27.43
2023-04-12T12:45:12.126Z,27.42
2023-04-12T12:46:12.165Z,27.46
2023-04-12T12:47:14.658Z,27.43
2023-04-12T12:48:12.202Z,27.45
2023-04-12T12:49:12.234Z,27.46
2023-04-12T12:50:12.119Z,27.47
2023-04-12T12:51:12.133Z,27.52
2023-04-12T12:52:12.129Z,27.56
2023-04-12T12:53:12.074Z,27.56